sensor_id;sensor_type;location;lat;lon;timestamp;P1;durP1;ratioP1;P2;durP2;ratioP2
18685;SDS011;9473;52.342;13.110;2022-10-16T00:01:49;2.78;;;1.85;;
18685;SDS011;9473;52.342;13.110;2022-10-16T00:04:16;1.85;;;1.40;;
18685;SDS011;9473;52.342;13.110;2022-10-16T00:06:43;2.50;;;1.52;;
18685;SDS011;9473;52.342;13.110;2022-10-16T00:09:10;2.60;;;1.70;;
18685;SDS011;9473;52.342;13.110;2022-10-16T00:11:38;1.50;;;1.40;;
18685;SDS011;9473;52.342;13.110;2022-10-16T00:14:06;2.90;;;1.60;;
18685;SDS011;9473;52.342;13.110;2022-10-16T00:16:34;4.22;;;1.40;;
18685;SDS011;9473;52.342;13.110;2022-10-16T00:19:02;2.45;;;1.60;;
18685;SDS011;9473;52.342;13.110;2022-10-16T00:21:29;2.28;;;1.60;;
18685;SDS011;9473;52.342;13.110;2022-10-16T00:23:57;1.50;;;1.30;;
18685;SDS011;9473;52.342;13.110;2022-10-16T00:26:25;2.85;;;1.75;;
18685;SDS011;9473;52.342;13.110;2022-10-16T00:28:52;3.55;;;1.67;;
18685;SDS011;9473;52.342;13.110;2022-10-16T00:31:20;2.28;;;1.55;;
18685;SDS011;9473;52.342;13.110;2022-10-16T00:33:49;3.22;;;1.65;;
18685;SDS011;9473;52.342;13.110;2022-10-16T00:36:16;2.20;;;1.70;;
18685;SDS011;9473;52.342;13.110;2022-10-16T00:38:43;1.80;;;1.33;;
18685;SDS011;9473;52.342;13.110;2022-10-16T00:41:11;1.90;;;1.52;;
18685;SDS011;9473;52.342;13.110;2022-10-16T00:43:39;1.63;;;1.40;;
18685;SDS011;9473;52.342;13.110;2022-10-16T00:46:10;4.35;;;1.75;;
18685;SDS011;9473;52.342;13.110;2022-10-16T00:48:38;2.97;;;1.70;;
18685;SDS011;9473;52.342;13.110;2022-10-16T00:51:06;2.28;;;1.58;;
18685;SDS011;9473;52.342;13.110;2022-10-16T00:53:34;2.25;;;1.70;;
18685;SDS011;9473;52.342;13.110;2022-10-16T00:56:01;1.83;;;1.60;;
18685;SDS011;9473;52.342;13.110;2022-10-16T00:58:28;2.50;;;1.48;;
18685;SDS011;9473;52.342;13.110;2022-10-16T01:00:55;4.53;;;1.58;;
18685;SDS011;9473;52.342;13.110;2022-10-16T01:03:23;2.25;;;1.50;;
18685;SDS011;9473;52.342;13.110;2022-10-16T01:05:51;1.98;;;1.60;;
18685;SDS011;9473;52.342;13.110;2022-10-16T01:08:25;3.03;;;1.50;;
18685;SDS011;9473;52.342;13.110;2022-10-16T01:10:55;2.90;;;1.33;;
18685;SDS011;9473;52.342;13.110;2022-10-16T01:13:24;2.80;;;1.55;;
18685;SDS011;9473;52.342;13.110;2022-10-16T01:15:54;2.97;;;1.35;;
18685;SDS011;9473;52.342;13.110;2022-10-16T01:18:23;3.85;;;1.60;;
18685;SDS011;9473;52.342;13.110;2022-10-16T01:20:54;3.83;;;1.50;;
18685;SDS011;9473;52.342;13.110;2022-10-16T01:23:30;2.28;;;1.60;;
18685;SDS011;9473;52.342;13.110;2022-10-16T01:26:07;2.22;;;1.67;;
18685;SDS011;9473;52.342;13.110;2022-10-16T01:28:40;4.00;;;1.48;;
18685;SDS011;9473;52.342;13.110;2022-10-16T01:31:08;2.53;;;1.48;;
18685;SDS011;9473;52.342;13.110;2022-10-16T01:33:38;2.55;;;1.50;;
18685;SDS011;9473;52.342;13.110;2022-10-16T01:36:07;2.03;;;1.40;;
18685;SDS011;9473;52.342;13.110;2022-10-16T01:38:37;5.43;;;1.50;;
18685;SDS011;9473;52.342;13.110;2022-10-16T01:41:06;2.53;;;1.50;;
18685;SDS011;9473;52.342;13.110;2022-10-16T01:43:35;4.00;;;1.58;;
18685;SDS011;9473;52.342;13.110;2022-10-16T01:46:04;1.70;;;1.60;;
18685;SDS011;9473;52.342;13.110;2022-10-16T01:48:31;2.15;;;1.60;;
18685;SDS011;9473;52.342;13.110;2022-10-16T01:51:01;3.10;;;1.60;;
18685;SDS011;9473;52.342;13.110;2022-10-16T01:53:29;1.92;;;1.50;;
18685;SDS011;9473;52.342;13.110;2022-10-16T01:55:56;1.90;;;1.63;;
18685;SDS011;9473;52.342;13.110;2022-10-16T01:58:25;4.95;;;1.60;;
18685;SDS011;9473;52.342;13.110;2022-10-16T02:00:52;2.55;;;1.40;;
18685;SDS011;9473;52.342;13.110;2022-10-16T02:03:21;1.60;;;1.50;;
18685;SDS011;9473;52.342;13.110;2022-10-16T02:05:49;1.88;;;1.50;;
18685;SDS011;9473;52.342;13.110;2022-10-16T02:08:17;3.50;;;1.63;;
18685;SDS011;9473;52.342;13.110;2022-10-16T02:10:44;1.95;;;1.58;;
18685;SDS011;9473;52.342;13.110;2022-10-16T02:13:11;3.20;;;1.40;;
18685;SDS011;9473;52.342;13.110;2022-10-16T02:15:39;5.22;;;1.90;;
18685;SDS011;9473;52.342;13.110;2022-10-16T02:18:06;1.85;;;1.38;;
18685;SDS011;9473;52.342;13.110;2022-10-16T02:20:36;1.88;;;1.50;;
18685;SDS011;9473;52.342;13.110;2022-10-16T02:23:05;1.40;;;1.30;;
18685;SDS011;9473;52.342;13.110;2022-10-16T02:25:34;1.85;;;1.52;;
18685;SDS011;9473;52.342;13.110;2022-10-16T02:28:06;2.03;;;1.42;;
18685;SDS011;9473;52.342;13.110;2022-10-16T02:30:38;2.13;;;1.42;;
18685;SDS011;9473;52.342;13.110;2022-10-16T02:33:07;4.95;;;1.70;;
18685;SDS011;9473;52.342;13.110;2022-10-16T02:35:37;3.30;;;1.63;;
18685;SDS011;9473;52.342;13.110;2022-10-16T02:38:04;3.28;;;1.58;;
18685;SDS011;9473;52.342;13.110;2022-10-16T02:40:32;2.45;;;1.70;;
18685;SDS011;9473;52.342;13.110;2022-10-16T02:42:59;3.10;;;1.42;;
18685;SDS011;9473;52.342;13.110;2022-10-16T02:45:26;3.90;;;1.50;;
18685;SDS011;9473;52.342;13.110;2022-10-16T02:47:54;4.68;;;1.40;;
18685;SDS011;9473;52.342;13.110;2022-10-16T02:50:21;3.75;;;1.50;;
18685;SDS011;9473;52.342;13.110;2022-10-16T02:52:50;2.63;;;1.40;;
18685;SDS011;9473;52.342;13.110;2022-10-16T02:55:17;2.00;;;1.35;;
18685;SDS011;9473;52.342;13.110;2022-10-16T02:57:44;2.97;;;1.60;;
18685;SDS011;9473;52.342;13.110;2022-10-16T03:00:12;1.55;;;1.40;;
18685;SDS011;9473;52.342;13.110;2022-10-16T03:02:39;1.63;;;1.40;;
18685;SDS011;9473;52.342;13.110;2022-10-16T03:05:06;1.75;;;1.23;;
18685;SDS011;9473;52.342;13.110;2022-10-16T03:07:33;2.92;;;1.60;;
18685;SDS011;9473;52.342;13.110;2022-10-16T03:10:02;1.73;;;1.58;;
18685;SDS011;9473;52.342;13.110;2022-10-16T03:12:29;2.45;;;1.60;;
18685;SDS011;9473;52.342;13.110;2022-10-16T03:14:56;2.80;;;1.55;;
18685;SDS011;9473;52.342;13.110;2022-10-16T03:17:23;5.65;;;1.70;;
18685;SDS011;9473;52.342;13.110;2022-10-16T03:19:50;4.95;;;1.58;;
18685;SDS011;9473;52.342;13.110;2022-10-16T03:22:17;4.05;;;1.80;;
18685;SDS011;9473;52.342;13.110;2022-10-16T03:24:44;1.77;;;1.48;;
18685;SDS011;9473;52.342;13.110;2022-10-16T03:27:12;1.58;;;1.48;;
18685;SDS011;9473;52.342;13.110;2022-10-16T03:29:39;4.05;;;1.77;;
18685;SDS011;9473;52.342;13.110;2022-10-16T03:32:06;1.65;;;1.30;;
18685;SDS011;9473;52.342;13.110;2022-10-16T03:34:33;3.00;;;1.65;;
18685;SDS011;9473;52.342;13.110;2022-10-16T03:37:00;2.85;;;1.40;;
18685;SDS011;9473;52.342;13.110;2022-10-16T03:39:27;2.42;;;1.67;;
18685;SDS011;9473;52.342;13.110;2022-10-16T03:41:54;2.05;;;1.58;;
18685;SDS011;9473;52.342;13.110;2022-10-16T03:44:22;1.77;;;1.45;;
18685;SDS011;9473;52.342;13.110;2022-10-16T03:46:49;3.25;;;1.77;;
18685;SDS011;9473;52.342;13.110;2022-10-16T03:49:16;2.40;;;1.65;;
18685;SDS011;9473;52.342;13.110;2022-10-16T03:51:42;2.78;;;1.63;;
18685;SDS011;9473;52.342;13.110;2022-10-16T03:54:10;5.35;;;1.90;;
18685;SDS011;9473;52.342;13.110;2022-10-16T03:56:37;2.13;;;1.52;;
18685;SDS011;9473;52.342;13.110;2022-10-16T03:59:04;6.78;;;3.50;;
18685;SDS011;9473;52.342;13.110;2022-10-16T04:01:32;3.20;;;1.70;;
18685;SDS011;9473;52.342;13.110;2022-10-16T04:03:59;1.80;;;1.40;;
18685;SDS011;9473;52.342;13.110;2022-10-16T04:06:26;3.17;;;1.60;;
18685;SDS011;9473;52.342;13.110;2022-10-16T04:08:53;1.77;;;1.33;;
18685;SDS011;9473;52.342;13.110;2022-10-16T04:11:20;1.67;;;1.42;;
18685;SDS011;9473;52.342;13.110;2022-10-16T04:13:47;3.83;;;1.63;;
18685;SDS011;9473;52.342;13.110;2022-10-16T04:16:14;5.18;;;1.50;;
18685;SDS011;9473;52.342;13.110;2022-10-16T04:18:42;2.00;;;1.60;;
18685;SDS011;9473;52.342;13.110;2022-10-16T04:21:09;7.40;;;1.80;;
18685;SDS011;9473;52.342;13.110;2022-10-16T04:23:36;3.10;;;1.67;;
18685;SDS011;9473;52.342;13.110;2022-10-16T04:26:02;3.03;;;1.58;;
18685;SDS011;9473;52.342;13.110;2022-10-16T04:28:29;2.05;;;1.40;;
18685;SDS011;9473;52.342;13.110;2022-10-16T04:30:56;2.22;;;1.40;;
18685;SDS011;9473;52.342;13.110;2022-10-16T04:33:23;3.15;;;1.90;;
18685;SDS011;9473;52.342;13.110;2022-10-16T04:35:57;2.50;;;1.60;;
18685;SDS011;9473;52.342;13.110;2022-10-16T04:38:24;2.38;;;1.70;;
18685;SDS011;9473;52.342;13.110;2022-10-16T04:40:51;3.80;;;1.77;;
18685;SDS011;9473;52.342;13.110;2022-10-16T04:43:18;3.08;;;2.00;;
18685;SDS011;9473;52.342;13.110;2022-10-16T04:45:45;1.95;;;1.65;;
18685;SDS011;9473;52.342;13.110;2022-10-16T04:48:12;3.67;;;1.60;;
18685;SDS011;9473;52.342;13.110;2022-10-16T04:50:39;2.00;;;1.80;;
18685;SDS011;9473;52.342;13.110;2022-10-16T04:53:07;2.58;;;1.50;;
18685;SDS011;9473;52.342;13.110;2022-10-16T04:55:34;3.88;;;1.45;;
18685;SDS011;9473;52.342;13.110;2022-10-16T04:58:02;7.10;;;1.65;;
18685;SDS011;9473;52.342;13.110;2022-10-16T05:00:29;4.00;;;1.30;;
18685;SDS011;9473;52.342;13.110;2022-10-16T05:02:56;1.83;;;1.50;;
18685;SDS011;9473;52.342;13.110;2022-10-16T05:05:24;4.60;;;1.55;;
18685;SDS011;9473;52.342;13.110;2022-10-16T05:07:51;1.95;;;1.48;;
18685;SDS011;9473;52.342;13.110;2022-10-16T05:10:19;2.72;;;1.52;;
18685;SDS011;9473;52.342;13.110;2022-10-16T05:12:46;1.92;;;1.30;;
18685;SDS011;9473;52.342;13.110;2022-10-16T05:15:13;2.63;;;1.50;;
18685;SDS011;9473;52.342;13.110;2022-10-16T05:17:40;2.13;;;1.35;;
18685;SDS011;9473;52.342;13.110;2022-10-16T05:20:07;1.58;;;1.40;;
18685;SDS011;9473;52.342;13.110;2022-10-16T05:22:34;5.60;;;1.33;;
18685;SDS011;9473;52.342;13.110;2022-10-16T05:25:01;2.80;;;1.50;;
18685;SDS011;9473;52.342;13.110;2022-10-16T05:27:29;3.30;;;1.75;;
18685;SDS011;9473;52.342;13.110;2022-10-16T05:29:56;4.22;;;1.80;;
18685;SDS011;9473;52.342;13.110;2022-10-16T05:32:23;3.97;;;1.45;;
18685;SDS011;9473;52.342;13.110;2022-10-16T05:34:50;4.55;;;1.60;;
18685;SDS011;9473;52.342;13.110;2022-10-16T05:37:17;2.20;;;1.77;;
18685;SDS011;9473;52.342;13.110;2022-10-16T05:39:44;3.20;;;1.60;;
18685;SDS011;9473;52.342;13.110;2022-10-16T05:42:11;2.75;;;1.92;;
18685;SDS011;9473;52.342;13.110;2022-10-16T05:44:39;2.30;;;1.65;;
18685;SDS011;9473;52.342;13.110;2022-10-16T05:47:06;2.95;;;1.70;;
18685;SDS011;9473;52.342;13.110;2022-10-16T05:49:33;2.42;;;1.60;;
18685;SDS011;9473;52.342;13.110;2022-10-16T05:52:00;3.25;;;1.60;;
18685;SDS011;9473;52.342;13.110;2022-10-16T05:54:27;2.08;;;1.70;;
18685;SDS011;9473;52.342;13.110;2022-10-16T05:56:53;2.70;;;2.10;;
18685;SDS011;9473;52.342;13.110;2022-10-16T05:59:20;4.35;;;1.70;;
18685;SDS011;9473;52.342;13.110;2022-10-16T06:01:49;2.35;;;1.70;;
18685;SDS011;9473;52.342;13.110;2022-10-16T06:04:16;3.15;;;1.77;;
18685;SDS011;9473;52.342;13.110;2022-10-16T06:06:42;3.38;;;1.70;;
18685;SDS011;9473;52.342;13.110;2022-10-16T06:09:10;3.97;;;1.88;;
18685;SDS011;9473;52.342;13.110;2022-10-16T06:11:36;2.05;;;1.60;;
18685;SDS011;9473;52.342;13.110;2022-10-16T06:14:03;2.15;;;1.63;;
18685;SDS011;9473;52.342;13.110;2022-10-16T06:16:32;2.80;;;1.63;;
18685;SDS011;9473;52.342;13.110;2022-10-16T06:19:00;1.63;;;1.52;;
18685;SDS011;9473;52.342;13.110;2022-10-16T06:21:31;7.05;;;1.67;;
18685;SDS011;9473;52.342;13.110;2022-10-16T06:23:58;2.13;;;1.67;;
18685;SDS011;9473;52.342;13.110;2022-10-16T06:26:26;2.67;;;1.83;;
18685;SDS011;9473;52.342;13.110;2022-10-16T06:28:53;3.22;;;1.80;;
18685;SDS011;9473;52.342;13.110;2022-10-16T06:31:20;2.45;;;1.70;;
18685;SDS011;9473;52.342;13.110;2022-10-16T06:34:05;2.90;;;1.70;;
18685;SDS011;9473;52.342;13.110;2022-10-16T06:36:34;2.38;;;1.77;;
18685;SDS011;9473;52.342;13.110;2022-10-16T06:39:01;3.20;;;1.95;;
18685;SDS011;9473;52.342;13.110;2022-10-16T06:41:28;5.72;;;2.15;;
18685;SDS011;9473;52.342;13.110;2022-10-16T06:43:55;2.50;;;1.80;;
18685;SDS011;9473;52.342;13.110;2022-10-16T06:46:23;5.32;;;2.55;;
18685;SDS011;9473;52.342;13.110;2022-10-16T06:48:50;5.70;;;2.00;;
18685;SDS011;9473;52.342;13.110;2022-10-16T06:51:19;2.08;;;1.42;;
18685;SDS011;9473;52.342;13.110;2022-10-16T06:53:46;2.90;;;1.50;;
18685;SDS011;9473;52.342;13.110;2022-10-16T06:56:14;2.88;;;1.60;;
18685;SDS011;9473;52.342;13.110;2022-10-16T06:58:42;2.17;;;1.80;;
18685;SDS011;9473;52.342;13.110;2022-10-16T07:01:10;4.35;;;1.88;;
18685;SDS011;9473;52.342;13.110;2022-10-16T07:03:37;2.13;;;1.60;;
18685;SDS011;9473;52.342;13.110;2022-10-16T07:06:05;2.22;;;1.33;;
18685;SDS011;9473;52.342;13.110;2022-10-16T07:08:34;3.42;;;1.70;;
18685;SDS011;9473;52.342;13.110;2022-10-16T07:11:02;2.10;;;1.38;;
18685;SDS011;9473;52.342;13.110;2022-10-16T07:13:29;4.32;;;1.67;;
18685;SDS011;9473;52.342;13.110;2022-10-16T07:15:56;2.28;;;1.60;;
18685;SDS011;9473;52.342;13.110;2022-10-16T07:18:23;4.03;;;1.50;;
18685;SDS011;9473;52.342;13.110;2022-10-16T07:20:51;2.42;;;1.77;;
18685;SDS011;9473;52.342;13.110;2022-10-16T07:23:19;1.80;;;1.40;;
18685;SDS011;9473;52.342;13.110;2022-10-16T07:25:47;2.28;;;1.48;;
18685;SDS011;9473;52.342;13.110;2022-10-16T07:28:19;1.67;;;1.48;;
18685;SDS011;9473;52.342;13.110;2022-10-16T07:30:46;1.80;;;1.38;;
18685;SDS011;9473;52.342;13.110;2022-10-16T07:33:13;3.78;;;1.33;;
18685;SDS011;9473;52.342;13.110;2022-10-16T07:35:46;4.57;;;1.58;;
18685;SDS011;9473;52.342;13.110;2022-10-16T07:38:13;2.25;;;1.08;;
18685;SDS011;9473;52.342;13.110;2022-10-16T07:40:40;1.40;;;1.10;;
18685;SDS011;9473;52.342;13.110;2022-10-16T07:43:09;3.28;;;1.20;;
18685;SDS011;9473;52.342;13.110;2022-10-16T07:45:36;3.40;;;1.20;;
18685;SDS011;9473;52.342;13.110;2022-10-16T07:48:03;3.22;;;1.50;;
18685;SDS011;9473;52.342;13.110;2022-10-16T07:50:29;1.40;;;1.20;;
18685;SDS011;9473;52.342;13.110;2022-10-16T07:52:56;1.77;;;1.40;;
18685;SDS011;9473;52.342;13.110;2022-10-16T07:55:23;1.45;;;1.13;;
18685;SDS011;9473;52.342;13.110;2022-10-16T07:57:50;1.95;;;1.10;;
18685;SDS011;9473;52.342;13.110;2022-10-16T08:00:18;1.88;;;1.10;;
18685;SDS011;9473;52.342;13.110;2022-10-16T08:02:45;3.88;;;1.20;;
18685;SDS011;9473;52.342;13.110;2022-10-16T08:05:12;3.88;;;1.30;;
18685;SDS011;9473;52.342;13.110;2022-10-16T08:07:39;2.33;;;1.30;;
18685;SDS011;9473;52.342;13.110;2022-10-16T08:10:06;4.20;;;1.20;;
18685;SDS011;9473;52.342;13.110;2022-10-16T08:12:33;1.38;;;1.13;;
18685;SDS011;9473;52.342;13.110;2022-10-16T08:15:01;1.67;;;1.33;;
18685;SDS011;9473;52.342;13.110;2022-10-16T08:17:29;1.42;;;1.30;;
18685;SDS011;9473;52.342;13.110;2022-10-16T08:19:56;1.50;;;1.33;;
18685;SDS011;9473;52.342;13.110;2022-10-16T08:22:22;2.05;;;1.30;;
18685;SDS011;9473;52.342;13.110;2022-10-16T08:24:49;3.83;;;1.40;;
18685;SDS011;9473;52.342;13.110;2022-10-16T08:27:16;3.25;;;1.60;;
18685;SDS011;9473;52.342;13.110;2022-10-16T08:29:43;4.13;;;1.63;;
18685;SDS011;9473;52.342;13.110;2022-10-16T08:32:10;1.50;;;1.40;;
18685;SDS011;9473;52.342;13.110;2022-10-16T08:34:38;2.05;;;1.85;;
18685;SDS011;9473;52.342;13.110;2022-10-16T08:37:05;4.70;;;1.60;;
18685;SDS011;9473;52.342;13.110;2022-10-16T08:39:36;2.50;;;1.40;;
18685;SDS011;9473;52.342;13.110;2022-10-16T08:42:09;3.40;;;1.52;;
18685;SDS011;9473;52.342;13.110;2022-10-16T08:44:49;3.88;;;1.40;;
18685;SDS011;9473;52.342;13.110;2022-10-16T08:47:25;1.92;;;1.30;;
18685;SDS011;9473;52.342;13.110;2022-10-16T08:49:57;4.35;;;1.70;;
18685;SDS011;9473;52.342;13.110;2022-10-16T08:52:25;3.65;;;1.38;;
18685;SDS011;9473;52.342;13.110;2022-10-16T08:54:55;1.50;;;1.35;;
18685;SDS011;9473;52.342;13.110;2022-10-16T08:57:24;2.78;;;1.60;;
18685;SDS011;9473;52.342;13.110;2022-10-16T08:59:51;1.20;;;1.10;;
18685;SDS011;9473;52.342;13.110;2022-10-16T09:02:24;2.75;;;1.30;;
18685;SDS011;9473;52.342;13.110;2022-10-16T09:04:53;3.58;;;1.58;;
18685;SDS011;9473;52.342;13.110;2022-10-16T09:07:24;3.20;;;1.27;;
18685;SDS011;9473;52.342;13.110;2022-10-16T09:10:00;1.60;;;1.23;;
18685;SDS011;9473;52.342;13.110;2022-10-16T09:12:28;1.42;;;1.30;;
18685;SDS011;9473;52.342;13.110;2022-10-16T09:15:00;1.55;;;1.33;;
18685;SDS011;9473;52.342;13.110;2022-10-16T09:17:37;1.73;;;1.30;;
18685;SDS011;9473;52.342;13.110;2022-10-16T09:20:22;3.00;;;1.40;;
18685;SDS011;9473;52.342;13.110;2022-10-16T09:22:52;2.03;;;1.30;;
18685;SDS011;9473;52.342;13.110;2022-10-16T09:25:20;2.20;;;1.30;;
18685;SDS011;9473;52.342;13.110;2022-10-16T09:27:55;3.33;;;1.15;;
18685;SDS011;9473;52.342;13.110;2022-10-16T09:30:22;2.83;;;1.30;;
18685;SDS011;9473;52.342;13.110;2022-10-16T09:32:53;2.20;;;1.10;;
18685;SDS011;9473;52.342;13.110;2022-10-16T09:35:20;6.03;;;1.27;;
18685;SDS011;9473;52.342;13.110;2022-10-16T09:37:49;1.40;;;1.00;;
18685;SDS011;9473;52.342;13.110;2022-10-16T09:40:25;1.35;;;1.00;;
18685;SDS011;9473;52.342;13.110;2022-10-16T09:42:53;3.25;;;1.10;;
18685;SDS011;9473;52.342;13.110;2022-10-16T09:45:22;2.38;;;1.20;;
18685;SDS011;9473;52.342;13.110;2022-10-16T09:47:50;2.33;;;1.10;;
18685;SDS011;9473;52.342;13.110;2022-10-16T09:50:21;1.80;;;1.05;;
18685;SDS011;9473;52.342;13.110;2022-10-16T09:52:49;1.10;;;1.00;;
18685;SDS011;9473;52.342;13.110;2022-10-16T09:55:16;1.55;;;1.00;;
18685;SDS011;9473;52.342;13.110;2022-10-16T09:57:51;2.95;;;1.20;;
18685;SDS011;9473;52.342;13.110;2022-10-16T10:00:18;3.22;;;1.00;;
18685;SDS011;9473;52.342;13.110;2022-10-16T10:02:46;3.03;;;0.90;;
18685;SDS011;9473;52.342;13.110;2022-10-16T10:05:17;0.90;;;0.90;;
18685;SDS011;9473;52.342;13.110;2022-10-16T10:07:45;3.90;;;1.10;;
18685;SDS011;9473;52.342;13.110;2022-10-16T10:10:20;1.10;;;1.00;;
18685;SDS011;9473;52.342;13.110;2022-10-16T10:12:47;1.55;;;0.90;;
18685;SDS011;9473;52.342;13.110;2022-10-16T10:15:16;1.38;;;1.00;;
18685;SDS011;9473;52.342;13.110;2022-10-16T10:17:46;3.25;;;1.17;;
18685;SDS011;9473;52.342;13.110;2022-10-16T10:20:18;1.80;;;1.05;;
18685;SDS011;9473;52.342;13.110;2022-10-16T10:22:47;1.20;;;0.90;;
18685;SDS011;9473;52.342;13.110;2022-10-16T10:25:15;1.80;;;1.10;;
18685;SDS011;9473;52.342;13.110;2022-10-16T10:27:49;2.65;;;0.93;;
18685;SDS011;9473;52.342;13.110;2022-10-16T10:30:19;2.03;;;0.90;;
18685;SDS011;9473;52.342;13.110;2022-10-16T10:32:49;2.47;;;0.73;;
18685;SDS011;9473;52.342;13.110;2022-10-16T10:35:19;1.90;;;0.90;;
18685;SDS011;9473;52.342;13.110;2022-10-16T10:37:55;1.58;;;0.90;;
18685;SDS011;9473;52.342;13.110;2022-10-16T10:40:30;3.95;;;0.90;;
18685;SDS011;9473;52.342;13.110;2022-10-16T10:43:01;1.30;;;1.20;;
18685;SDS011;9473;52.342;13.110;2022-10-16T10:45:36;1.02;;;0.70;;
18685;SDS011;9473;52.342;13.110;2022-10-16T10:48:19;2.38;;;0.93;;
18685;SDS011;9473;52.342;13.110;2022-10-16T10:50:48;1.73;;;0.90;;
18685;SDS011;9473;52.342;13.110;2022-10-16T10:53:21;1.13;;;1.00;;
18685;SDS011;9473;52.342;13.110;2022-10-16T10:55:52;2.20;;;0.90;;
18685;SDS011;9473;52.342;13.110;2022-10-16T10:58:24;0.93;;;0.80;;
18685;SDS011;9473;52.342;13.110;2022-10-16T11:00:56;1.70;;;0.93;;
18685;SDS011;9473;52.342;13.110;2022-10-16T11:03:31;1.88;;;0.80;;
18685;SDS011;9473;52.342;13.110;2022-10-16T11:06:03;1.65;;;0.90;;
18685;SDS011;9473;52.342;13.110;2022-10-16T11:08:32;1.98;;;1.00;;
18685;SDS011;9473;52.342;13.110;2022-10-16T11:11:01;3.63;;;1.00;;
18685;SDS011;9473;52.342;13.110;2022-10-16T11:13:30;1.05;;;0.82;;
18685;SDS011;9473;52.342;13.110;2022-10-16T11:15:59;0.80;;;0.80;;
18685;SDS011;9473;52.342;13.110;2022-10-16T11:18:29;1.45;;;0.82;;
18685;SDS011;9473;52.342;13.110;2022-10-16T11:20:57;1.92;;;0.80;;
18685;SDS011;9473;52.342;13.110;2022-10-16T11:23:26;1.42;;;0.80;;
18685;SDS011;9473;52.342;13.110;2022-10-16T11:25:56;2.15;;;0.77;;
18685;SDS011;9473;52.342;13.110;2022-10-16T11:28:25;0.75;;;0.75;;
18685;SDS011;9473;52.342;13.110;2022-10-16T11:30:55;0.70;;;0.70;;
18685;SDS011;9473;52.342;13.110;2022-10-16T11:33:25;2.13;;;0.80;;
18685;SDS011;9473;52.342;13.110;2022-10-16T11:35:59;1.77;;;0.70;;
18685;SDS011;9473;52.342;13.110;2022-10-16T11:38:28;3.65;;;0.80;;
18685;SDS011;9473;52.342;13.110;2022-10-16T11:40:56;2.45;;;0.82;;
18685;SDS011;9473;52.342;13.110;2022-10-16T11:43:26;0.60;;;0.60;;
18685;SDS011;9473;52.342;13.110;2022-10-16T11:45:55;2.05;;;0.75;;
18685;SDS011;9473;52.342;13.110;2022-10-16T11:48:25;2.30;;;0.77;;
18685;SDS011;9473;52.342;13.110;2022-10-16T11:50:54;2.70;;;0.68;;
18685;SDS011;9473;52.342;13.110;2022-10-16T11:53:27;1.45;;;0.60;;
18685;SDS011;9473;52.342;13.110;2022-10-16T11:56:00;1.67;;;0.70;;
18685;SDS011;9473;52.342;13.110;2022-10-16T11:58:28;0.40;;;0.40;;
18685;SDS011;9473;52.342;13.110;2022-10-16T12:00:59;3.05;;;0.60;;
18685;SDS011;9473;52.342;13.110;2022-10-16T12:03:28;0.47;;;0.47;;
18685;SDS011;9473;52.342;13.110;2022-10-16T12:05:59;1.20;;;0.50;;
18685;SDS011;9473;52.342;13.110;2022-10-16T12:08:29;0.98;;;0.70;;
18685;SDS011;9473;52.342;13.110;2022-10-16T12:11:05;0.95;;;0.60;;
18685;SDS011;9473;52.342;13.110;2022-10-16T12:13:33;0.70;;;0.60;;
18685;SDS011;9473;52.342;13.110;2022-10-16T12:16:04;0.98;;;0.60;;
18685;SDS011;9473;52.342;13.110;2022-10-16T12:18:31;1.73;;;0.50;;
18685;SDS011;9473;52.342;13.110;2022-10-16T12:20:58;0.85;;;0.65;;
18685;SDS011;9473;52.342;13.110;2022-10-16T12:23:31;0.82;;;0.60;;
18685;SDS011;9473;52.342;13.110;2022-10-16T12:25:59;4.35;;;0.60;;
18685;SDS011;9473;52.342;13.110;2022-10-16T12:28:27;1.38;;;0.60;;
18685;SDS011;9473;52.342;13.110;2022-10-16T12:30:56;0.50;;;0.50;;
18685;SDS011;9473;52.342;13.110;2022-10-16T12:33:23;0.50;;;0.50;;
18685;SDS011;9473;52.342;13.110;2022-10-16T12:35:51;0.60;;;0.40;;
18685;SDS011;9473;52.342;13.110;2022-10-16T12:38:19;0.82;;;0.60;;
18685;SDS011;9473;52.342;13.110;2022-10-16T12:40:54;0.63;;;0.50;;
18685;SDS011;9473;52.342;13.110;2022-10-16T12:43:28;0.65;;;0.50;;
18685;SDS011;9473;52.342;13.110;2022-10-16T12:45:59;0.50;;;0.40;;
18685;SDS011;9473;52.342;13.110;2022-10-16T12:48:26;1.27;;;0.70;;
18685;SDS011;9473;52.342;13.110;2022-10-16T12:50:53;1.83;;;0.60;;
18685;SDS011;9473;52.342;13.110;2022-10-16T12:53:21;0.93;;;0.60;;
18685;SDS011;9473;52.342;13.110;2022-10-16T12:55:52;2.15;;;0.60;;
18685;SDS011;9473;52.342;13.110;2022-10-16T12:58:30;0.85;;;0.65;;
18685;SDS011;9473;52.342;13.110;2022-10-16T13:01:03;1.98;;;0.60;;
18685;SDS011;9473;52.342;13.110;2022-10-16T13:03:45;1.25;;;0.80;;
18685;SDS011;9473;52.342;13.110;2022-10-16T13:06:20;2.80;;;1.00;;
18685;SDS011;9473;52.342;13.110;2022-10-16T13:08:56;1.13;;;0.70;;
18685;SDS011;9473;52.342;13.110;2022-10-16T13:11:32;1.10;;;0.70;;
18685;SDS011;9473;52.342;13.110;2022-10-16T13:16:47;0.80;;;0.80;;
18685;SDS011;9473;52.342;13.110;2022-10-16T13:19:18;1.15;;;0.70;;
18685;SDS011;9473;52.342;13.110;2022-10-16T13:21:49;0.60;;;0.60;;
18685;SDS011;9473;52.342;13.110;2022-10-16T13:24:21;0.80;;;0.68;;
18685;SDS011;9473;52.342;13.110;2022-10-16T13:26:52;0.70;;;0.60;;
18685;SDS011;9473;52.342;13.110;2022-10-16T13:29:20;2.03;;;0.70;;
18685;SDS011;9473;52.342;13.110;2022-10-16T13:31:47;0.70;;;0.70;;
18685;SDS011;9473;52.342;13.110;2022-10-16T13:34:14;1.40;;;0.70;;
18685;SDS011;9473;52.342;13.110;2022-10-16T13:36:43;0.82;;;0.70;;
18685;SDS011;9473;52.342;13.110;2022-10-16T13:39:12;1.15;;;0.70;;
18685;SDS011;9473;52.342;13.110;2022-10-16T13:41:39;0.95;;;0.63;;
18685;SDS011;9473;52.342;13.110;2022-10-16T13:44:11;1.00;;;0.80;;
18685;SDS011;9473;52.342;13.110;2022-10-16T13:46:39;0.82;;;0.80;;
18685;SDS011;9473;52.342;13.110;2022-10-16T13:49:11;1.83;;;0.70;;
18685;SDS011;9473;52.342;13.110;2022-10-16T13:51:38;1.55;;;0.95;;
18685;SDS011;9473;52.342;13.110;2022-10-16T13:54:07;3.03;;;0.77;;
18685;SDS011;9473;52.342;13.110;2022-10-16T13:56:35;1.10;;;0.88;;
18685;SDS011;9473;52.342;13.110;2022-10-16T13:59:02;1.13;;;0.93;;
18685;SDS011;9473;52.342;13.110;2022-10-16T14:01:31;0.82;;;0.73;;
18685;SDS011;9473;52.342;13.110;2022-10-16T14:04:00;1.17;;;0.60;;
18685;SDS011;9473;52.342;13.110;2022-10-16T14:06:28;1.17;;;0.70;;
18685;SDS011;9473;52.342;13.110;2022-10-16T14:08:56;0.88;;;0.80;;
18685;SDS011;9473;52.342;13.110;2022-10-16T14:11:25;3.83;;;0.60;;
18685;SDS011;9473;52.342;13.110;2022-10-16T14:13:52;1.38;;;0.70;;
18685;SDS011;9473;52.342;13.110;2022-10-16T14:16:20;2.25;;;0.80;;
18685;SDS011;9473;52.342;13.110;2022-10-16T14:18:51;1.00;;;0.68;;
18685;SDS011;9473;52.342;13.110;2022-10-16T14:21:21;1.50;;;0.65;;
18685;SDS011;9473;52.342;13.110;2022-10-16T14:23:49;0.90;;;0.60;;
18685;SDS011;9473;52.342;13.110;2022-10-16T14:26:17;1.60;;;0.70;;
18685;SDS011;9473;52.342;13.110;2022-10-16T14:28:44;1.10;;;0.70;;
18685;SDS011;9473;52.342;13.110;2022-10-16T14:31:22;1.23;;;0.82;;
18685;SDS011;9473;52.342;13.110;2022-10-16T14:33:51;1.60;;;0.95;;
18685;SDS011;9473;52.342;13.110;2022-10-16T14:36:18;1.73;;;0.88;;
18685;SDS011;9473;52.342;13.110;2022-10-16T14:38:48;3.58;;;1.15;;
18685;SDS011;9473;52.342;13.110;2022-10-16T14:41:16;4.35;;;0.77;;
18685;SDS011;9473;52.342;13.110;2022-10-16T14:43:49;1.67;;;0.70;;
18685;SDS011;9473;52.342;13.110;2022-10-16T14:46:17;1.50;;;0.70;;
18685;SDS011;9473;52.342;13.110;2022-10-16T14:48:45;1.30;;;0.80;;
18685;SDS011;9473;52.342;13.110;2022-10-16T14:51:14;1.50;;;0.88;;
18685;SDS011;9473;52.342;13.110;2022-10-16T14:53:41;1.90;;;0.98;;
18685;SDS011;9473;52.342;13.110;2022-10-16T14:56:08;2.03;;;0.88;;
18685;SDS011;9473;52.342;13.110;2022-10-16T14:58:40;1.58;;;0.80;;
18685;SDS011;9473;52.342;13.110;2022-10-16T15:01:07;0.60;;;0.60;;